sensor_id;sensor_type;location;lat;lon;timestamp;P1;durP1;ratioP1;P2;durP2;ratioP2
9445;SDS011;4761;49.490;10.908;2023-12-20T00:00:02;1.30;;;1.20;;
9445;SDS011;4761;49.490;10.908;2023-12-20T00:02:28;2.60;;;1.80;;
9445;SDS011;4761;49.490;10.908;2023-12-20T00:04:53;1.77;;;1.23;;
9445;SDS011;4761;49.490;10.908;2023-12-20T00:07:18;1.87;;;1.47;;
9445;SDS011;4761;49.490;10.908;2023-12-20T00:09:44;1.73;;;1.40;;
9445;SDS011;4761;49.490;10.908;2023-12-20T00:12:10;1.93;;;1.40;;
9445;SDS011;4761;49.490;10.908;2023-12-20T00:14:35;2.00;;;1.60;;
9445;SDS011;4761;49.490;10.908;2023-12-20T00:17:01;1.57;;;1.30;;
9445;SDS011;4761;49.490;10.908;2023-12-20T00:19:26;2.03;;;1.53;;
9445;SDS011;4761;49.490;10.908;2023-12-20T00:21:52;1.40;;;1.30;;
9445;SDS011;4761;49.490;10.908;2023-12-20T00:24:17;2.07;;;1.43;;
9445;SDS011;4761;49.490;10.908;2023-12-20T00:26:43;1.27;;;1.17;;
9445;SDS011;4761;49.490;10.908;2023-12-20T00:29:08;1.97;;;1.30;;
9445;SDS011;4761;49.490;10.908;2023-12-20T00:31:34;2.53;;;1.60;;
9445;SDS011;4761;49.490;10.908;2023-12-20T00:33:59;1.37;;;1.27;;
9445;SDS011;4761;49.490;10.908;2023-12-20T00:36:25;1.93;;;1.30;;
9445;SDS011;4761;49.490;10.908;2023-12-20T00:38:50;1.67;;;1.30;;
9445;SDS011;4761;49.490;10.908;2023-12-20T00:41:16;1.50;;;1.27;;
9445;SDS011;4761;49.490;10.908;2023-12-20T00:43:42;1.80;;;1.50;;
9445;SDS011;4761;49.490;10.908;2023-12-20T00:46:07;1.63;;;1.40;;
9445;SDS011;4761;49.490;10.908;2023-12-20T00:48:33;1.67;;;1.27;;
9445;SDS011;4761;49.490;10.908;2023-12-20T00:50:58;1.47;;;1.30;;
9445;SDS011;4761;49.490;10.908;2023-12-20T00:53:24;1.83;;;1.30;;
9445;SDS011;4761;49.490;10.908;2023-12-20T00:55:49;1.33;;;1.23;;
9445;SDS011;4761;49.490;10.908;2023-12-20T00:58:15;2.17;;;1.27;;
9445;SDS011;4761;49.490;10.908;2023-12-20T01:00:41;1.30;;;1.20;;
9445;SDS011;4761;49.490;10.908;2023-12-20T01:03:08;1.50;;;1.10;;
9445;SDS011;4761;49.490;10.908;2023-12-20T01:05:33;1.40;;;1.00;;
9445;SDS011;4761;49.490;10.908;2023-12-20T01:07:59;1.03;;;0.93;;
9445;SDS011;4761;49.490;10.908;2023-12-20T01:10:24;1.10;;;1.00;;
9445;SDS011;4761;49.490;10.908;2023-12-20T01:12:53;1.63;;;0.93;;
9445;SDS011;4761;49.490;10.908;2023-12-20T01:15:18;1.30;;;1.10;;
9445;SDS011;4761;49.490;10.908;2023-12-20T01:17:44;1.17;;;0.80;;
9445;SDS011;4761;49.490;10.908;2023-12-20T01:20:09;1.30;;;1.10;;
9445;SDS011;4761;49.490;10.908;2023-12-20T01:22:35;0.83;;;0.70;;
9445;SDS011;4761;49.490;10.908;2023-12-20T01:25:01;0.83;;;0.83;;
9445;SDS011;4761;49.490;10.908;2023-12-20T01:27:27;1.00;;;0.80;;
9445;SDS011;4761;49.490;10.908;2023-12-20T01:29:53;0.80;;;0.80;;
9445;SDS011;4761;49.490;10.908;2023-12-20T01:32:19;1.20;;;0.90;;
9445;SDS011;4761;49.490;10.908;2023-12-20T01:34:44;1.60;;;0.90;;
9445;SDS011;4761;49.490;10.908;2023-12-20T01:37:10;1.00;;;0.70;;
9445;SDS011;4761;49.490;10.908;2023-12-20T01:39:35;0.70;;;0.70;;
9445;SDS011;4761;49.490;10.908;2023-12-20T01:42:01;1.80;;;0.87;;
9445;SDS011;4761;49.490;10.908;2023-12-20T01:44:27;1.00;;;0.70;;
9445;SDS011;4761;49.490;10.908;2023-12-20T01:46:52;0.70;;;0.70;;
9445;SDS011;4761;49.490;10.908;2023-12-20T01:49:18;0.70;;;0.70;;
9445;SDS011;4761;49.490;10.908;2023-12-20T01:51:44;0.70;;;0.70;;
9445;SDS011;4761;49.490;10.908;2023-12-20T01:54:10;0.83;;;0.70;;
9445;SDS011;4761;49.490;10.908;2023-12-20T01:56:36;0.60;;;0.60;;
9445;SDS011;4761;49.490;10.908;2023-12-20T01:59:03;0.73;;;0.60;;
9445;SDS011;4761;49.490;10.908;2023-12-20T02:01:29;0.70;;;0.60;;
9445;SDS011;4761;49.490;10.908;2023-12-20T02:03:55;0.70;;;0.70;;
9445;SDS011;4761;49.490;10.908;2023-12-20T02:06:21;0.90;;;0.70;;
9445;SDS011;4761;49.490;10.908;2023-12-20T02:08:49;0.73;;;0.70;;
9445;SDS011;4761;49.490;10.908;2023-12-20T02:11:15;1.37;;;0.80;;
9445;SDS011;4761;49.490;10.908;2023-12-20T02:13:41;0.50;;;0.50;;
9445;SDS011;4761;49.490;10.908;2023-12-20T02:16:07;0.70;;;0.57;;
9445;SDS011;4761;49.490;10.908;2023-12-20T02:18:32;0.70;;;0.70;;
9445;SDS011;4761;49.490;10.908;2023-12-20T02:20:58;0.63;;;0.60;;
9445;SDS011;4761;49.490;10.908;2023-12-20T02:23:24;0.60;;;0.60;;
9445;SDS011;4761;49.490;10.908;2023-12-20T02:25:49;0.57;;;0.57;;
9445;SDS011;4761;49.490;10.908;2023-12-20T02:28:15;0.47;;;0.47;;
9445;SDS011;4761;49.490;10.908;2023-12-20T02:30:41;0.50;;;0.50;;
9445;SDS011;4761;49.490;10.908;2023-12-20T02:33:07;0.60;;;0.50;;
9445;SDS011;4761;49.490;10.908;2023-12-20T02:35:36;0.50;;;0.50;;
9445;SDS011;4761;49.490;10.908;2023-12-20T02:38:01;0.50;;;0.50;;
9445;SDS011;4761;49.490;10.908;2023-12-20T02:40:27;0.50;;;0.50;;
9445;SDS011;4761;49.490;10.908;2023-12-20T02:42:52;0.50;;;0.50;;
9445;SDS011;4761;49.490;10.908;2023-12-20T02:45:18;0.40;;;0.40;;
9445;SDS011;4761;49.490;10.908;2023-12-20T02:47:44;0.50;;;0.50;;
9445;SDS011;4761;49.490;10.908;2023-12-20T02:50:09;0.60;;;0.60;;
9445;SDS011;4761;49.490;10.908;2023-12-20T02:52:35;0.40;;;0.40;;
9445;SDS011;4761;49.490;10.908;2023-12-20T02:55:00;0.70;;;0.50;;
9445;SDS011;4761;49.490;10.908;2023-12-20T02:57:26;0.40;;;0.40;;
9445;SDS011;4761;49.490;10.908;2023-12-20T02:59:51;0.50;;;0.50;;
9445;SDS011;4761;49.490;10.908;2023-12-20T03:02:17;0.53;;;0.47;;
9445;SDS011;4761;49.490;10.908;2023-12-20T03:04:42;0.50;;;0.50;;
9445;SDS011;4761;49.490;10.908;2023-12-20T03:07:08;0.50;;;0.40;;
9445;SDS011;4761;49.490;10.908;2023-12-20T03:09:33;0.47;;;0.40;;
9445;SDS011;4761;49.490;10.908;2023-12-20T03:11:59;0.30;;;0.30;;
9445;SDS011;4761;49.490;10.908;2023-12-20T03:14:24;0.50;;;0.50;;
9445;SDS011;4761;49.490;10.908;2023-12-20T03:16:50;0.40;;;0.40;;
9445;SDS011;4761;49.490;10.908;2023-12-20T03:19:17;0.40;;;0.40;;
9445;SDS011;4761;49.490;10.908;2023-12-20T03:21:43;0.40;;;0.40;;
9445;SDS011;4761;49.490;10.908;2023-12-20T03:24:09;0.40;;;0.40;;
9445;SDS011;4761;49.490;10.908;2023-12-20T03:26:34;0.40;;;0.40;;
9445;SDS011;4761;49.490;10.908;2023-12-20T03:29:00;0.30;;;0.30;;
9445;SDS011;4761;49.490;10.908;2023-12-20T03:31:25;0.40;;;0.40;;
9445;SDS011;4761;49.490;10.908;2023-12-20T03:33:51;0.43;;;0.43;;
9445;SDS011;4761;49.490;10.908;2023-12-20T03:36:18;0.50;;;0.40;;
9445;SDS011;4761;49.490;10.908;2023-12-20T03:38:44;0.40;;;0.40;;
9445;SDS011;4761;49.490;10.908;2023-12-20T03:41:09;0.40;;;0.40;;
9445;SDS011;4761;49.490;10.908;2023-12-20T03:43:35;0.30;;;0.30;;
9445;SDS011;4761;49.490;10.908;2023-12-20T03:46:00;0.43;;;0.43;;
9445;SDS011;4761;49.490;10.908;2023-12-20T03:48:28;0.40;;;0.40;;
9445;SDS011;4761;49.490;10.908;2023-12-20T03:50:54;0.40;;;0.40;;
9445;SDS011;4761;49.490;10.908;2023-12-20T03:53:20;0.40;;;0.40;;
9445;SDS011;4761;49.490;10.908;2023-12-20T03:55:45;0.40;;;0.40;;
9445;SDS011;4761;49.490;10.908;2023-12-20T03:58:11;0.40;;;0.40;;
9445;SDS011;4761;49.490;10.908;2023-12-20T04:00:36;0.40;;;0.40;;
9445;SDS011;4761;49.490;10.908;2023-12-20T04:03:02;0.40;;;0.40;;
9445;SDS011;4761;49.490;10.908;2023-12-20T04:05:27;0.77;;;0.50;;
9445;SDS011;4761;49.490;10.908;2023-12-20T04:07:53;0.30;;;0.30;;
9445;SDS011;4761;49.490;10.908;2023-12-20T04:10:18;0.40;;;0.40;;
9445;SDS011;4761;49.490;10.908;2023-12-20T04:12:44;0.30;;;0.30;;
9445;SDS011;4761;49.490;10.908;2023-12-20T04:15:09;0.43;;;0.40;;
9445;SDS011;4761;49.490;10.908;2023-12-20T04:17:36;0.30;;;0.30;;
9445;SDS011;4761;49.490;10.908;2023-12-20T04:20:02;0.50;;;0.40;;
9445;SDS011;4761;49.490;10.908;2023-12-20T04:22:28;1.27;;;0.40;;
9445;SDS011;4761;49.490;10.908;2023-12-20T04:24:53;0.40;;;0.40;;
9445;SDS011;4761;49.490;10.908;2023-12-20T04:27:19;0.30;;;0.30;;
9445;SDS011;4761;49.490;10.908;2023-12-20T04:29:44;0.40;;;0.40;;
9445;SDS011;4761;49.490;10.908;2023-12-20T04:32:10;0.20;;;0.20;;
9445;SDS011;4761;49.490;10.908;2023-12-20T04:34:36;0.47;;;0.33;;
9445;SDS011;4761;49.490;10.908;2023-12-20T04:37:01;0.40;;;0.40;;
9445;SDS011;4761;49.490;10.908;2023-12-20T04:39:27;0.30;;;0.30;;
9445;SDS011;4761;49.490;10.908;2023-12-20T04:41:52;1.07;;;0.40;;
9445;SDS011;4761;49.490;10.908;2023-12-20T04:44:18;0.40;;;0.40;;
9445;SDS011;4761;49.490;10.908;2023-12-20T04:46:43;0.33;;;0.33;;
9445;SDS011;4761;49.490;10.908;2023-12-20T04:49:09;0.40;;;0.40;;
9445;SDS011;4761;49.490;10.908;2023-12-20T04:51:35;0.30;;;0.30;;
9445;SDS011;4761;49.490;10.908;2023-12-20T04:54:01;0.40;;;0.40;;
9445;SDS011;4761;49.490;10.908;2023-12-20T04:56:27;0.40;;;0.40;;
9445;SDS011;4761;49.490;10.908;2023-12-20T04:58:52;0.40;;;0.40;;
9445;SDS011;4761;49.490;10.908;2023-12-20T05:01:18;0.30;;;0.30;;
9445;SDS011;4761;49.490;10.908;2023-12-20T05:03:43;0.40;;;0.40;;
9445;SDS011;4761;49.490;10.908;2023-12-20T05:06:09;0.23;;;0.23;;
9445;SDS011;4761;49.490;10.908;2023-12-20T05:08:35;0.40;;;0.40;;
9445;SDS011;4761;49.490;10.908;2023-12-20T05:11:00;0.43;;;0.40;;
9445;SDS011;4761;49.490;10.908;2023-12-20T05:13:26;0.50;;;0.50;;
9445;SDS011;4761;49.490;10.908;2023-12-20T05:15:52;0.50;;;0.50;;
9445;SDS011;4761;49.490;10.908;2023-12-20T05:18:17;0.40;;;0.40;;
9445;SDS011;4761;49.490;10.908;2023-12-20T05:20:43;0.30;;;0.30;;
9445;SDS011;4761;49.490;10.908;2023-12-20T05:23:08;0.40;;;0.40;;
9445;SDS011;4761;49.490;10.908;2023-12-20T05:25:34;0.30;;;0.30;;
9445;SDS011;4761;49.490;10.908;2023-12-20T05:27:59;0.43;;;0.43;;
9445;SDS011;4761;49.490;10.908;2023-12-20T05:30:25;0.30;;;0.30;;
9445;SDS011;4761;49.490;10.908;2023-12-20T05:32:51;0.40;;;0.30;;
9445;SDS011;4761;49.490;10.908;2023-12-20T05:35:17;0.50;;;0.40;;
9445;SDS011;4761;49.490;10.908;2023-12-20T05:37:42;0.63;;;0.40;;
9445;SDS011;4761;49.490;10.908;2023-12-20T05:40:08;0.40;;;0.40;;
9445;SDS011;4761;49.490;10.908;2023-12-20T05:42:36;0.30;;;0.30;;
9445;SDS011;4761;49.490;10.908;2023-12-20T05:45:05;0.40;;;0.40;;
9445;SDS011;4761;49.490;10.908;2023-12-20T05:47:31;0.30;;;0.30;;
9445;SDS011;4761;49.490;10.908;2023-12-20T05:49:56;0.30;;;0.30;;
9445;SDS011;4761;49.490;10.908;2023-12-20T05:52:22;0.30;;;0.30;;
9445;SDS011;4761;49.490;10.908;2023-12-20T05:54:47;0.67;;;0.37;;
9445;SDS011;4761;49.490;10.908;2023-12-20T05:57:13;0.50;;;0.50;;
9445;SDS011;4761;49.490;10.908;2023-12-20T05:59:39;0.57;;;0.50;;
9445;SDS011;4761;49.490;10.908;2023-12-20T06:02:04;0.60;;;0.60;;
9445;SDS011;4761;49.490;10.908;2023-12-20T06:04:30;0.50;;;0.40;;
9445;SDS011;4761;49.490;10.908;2023-12-20T06:06:56;0.57;;;0.57;;
9445;SDS011;4761;49.490;10.908;2023-12-20T06:09:21;0.40;;;0.40;;
9445;SDS011;4761;49.490;10.908;2023-12-20T06:11:47;0.40;;;0.40;;
9445;SDS011;4761;49.490;10.908;2023-12-20T06:14:12;0.50;;;0.50;;
9445;SDS011;4761;49.490;10.908;2023-12-20T06:16:38;0.40;;;0.40;;
9445;SDS011;4761;49.490;10.908;2023-12-20T06:19:03;0.53;;;0.40;;
9445;SDS011;4761;49.490;10.908;2023-12-20T06:21:29;0.43;;;0.40;;
9445;SDS011;4761;49.490;10.908;2023-12-20T06:23:54;0.40;;;0.40;;
9445;SDS011;4761;49.490;10.908;2023-12-20T06:26:20;0.40;;;0.40;;
9445;SDS011;4761;49.490;10.908;2023-12-20T06:28:45;0.30;;;0.30;;
9445;SDS011;4761;49.490;10.908;2023-12-20T06:31:11;1.03;;;0.40;;
9445;SDS011;4761;49.490;10.908;2023-12-20T06:33:36;0.40;;;0.40;;
9445;SDS011;4761;49.490;10.908;2023-12-20T06:36:05;0.40;;;0.40;;
9445;SDS011;4761;49.490;10.908;2023-12-20T06:38:31;0.37;;;0.37;;
9445;SDS011;4761;49.490;10.908;2023-12-20T06:40:56;0.47;;;0.40;;
9445;SDS011;4761;49.490;10.908;2023-12-20T06:43:23;0.40;;;0.40;;
9445;SDS011;4761;49.490;10.908;2023-12-20T06:45:49;0.40;;;0.40;;
9445;SDS011;4761;49.490;10.908;2023-12-20T06:48:14;0.53;;;0.50;;
9445;SDS011;4761;49.490;10.908;2023-12-20T06:50:40;0.93;;;0.40;;
9445;SDS011;4761;49.490;10.908;2023-12-20T06:53:06;0.80;;;0.60;;
9445;SDS011;4761;49.490;10.908;2023-12-20T06:55:32;0.60;;;0.47;;
9445;SDS011;4761;49.490;10.908;2023-12-20T06:58:01;0.40;;;0.40;;
9445;SDS011;4761;49.490;10.908;2023-12-20T07:00:27;0.53;;;0.53;;
9445;SDS011;4761;49.490;10.908;2023-12-20T07:02:53;0.50;;;0.50;;
9445;SDS011;4761;49.490;10.908;2023-12-20T07:05:18;0.73;;;0.70;;
9445;SDS011;4761;49.490;10.908;2023-12-20T07:07:45;0.60;;;0.60;;
9445;SDS011;4761;49.490;10.908;2023-12-20T07:10:11;0.60;;;0.60;;
9445;SDS011;4761;49.490;10.908;2023-12-20T07:12:37;1.17;;;0.50;;
9445;SDS011;4761;49.490;10.908;2023-12-20T07:15:03;0.50;;;0.50;;
9445;SDS011;4761;49.490;10.908;2023-12-20T07:17:30;0.90;;;0.60;;
9445;SDS011;4761;49.490;10.908;2023-12-20T07:19:58;0.73;;;0.60;;
9445;SDS011;4761;49.490;10.908;2023-12-20T07:22:23;0.70;;;0.70;;
9445;SDS011;4761;49.490;10.908;2023-12-20T07:24:49;0.53;;;0.53;;
9445;SDS011;4761;49.490;10.908;2023-12-20T07:27:17;0.57;;;0.50;;
9445;SDS011;4761;49.490;10.908;2023-12-20T07:29:42;0.60;;;0.60;;
9445;SDS011;4761;49.490;10.908;2023-12-20T07:32:08;0.80;;;0.60;;
9445;SDS011;4761;49.490;10.908;2023-12-20T07:34:33;0.80;;;0.73;;
9445;SDS011;4761;49.490;10.908;2023-12-20T07:36:59;0.47;;;0.47;;
9445;SDS011;4761;49.490;10.908;2023-12-20T07:39:24;0.50;;;0.50;;
9445;SDS011;4761;49.490;10.908;2023-12-20T07:41:50;0.43;;;0.40;;
9445;SDS011;4761;49.490;10.908;2023-12-20T07:44:15;0.50;;;0.50;;
9445;SDS011;4761;49.490;10.908;2023-12-20T07:46:41;0.60;;;0.60;;
9445;SDS011;4761;49.490;10.908;2023-12-20T07:49:06;0.60;;;0.60;;
9445;SDS011;4761;49.490;10.908;2023-12-20T07:51:33;0.77;;;0.60;;
9445;SDS011;4761;49.490;10.908;2023-12-20T07:53:59;0.60;;;0.60;;
9445;SDS011;4761;49.490;10.908;2023-12-20T07:56:24;0.70;;;0.70;;
9445;SDS011;4761;49.490;10.908;2023-12-20T07:58:50;0.70;;;0.70;;
9445;SDS011;4761;49.490;10.908;2023-12-20T08:01:15;0.60;;;0.60;;
9445;SDS011;4761;49.490;10.908;2023-12-20T08:03:43;0.60;;;0.60;;
9445;SDS011;4761;49.490;10.908;2023-12-20T08:06:08;0.60;;;0.60;;
9445;SDS011;4761;49.490;10.908;2023-12-20T08:08:34;0.83;;;0.60;;
9445;SDS011;4761;49.490;10.908;2023-12-20T08:10:59;0.60;;;0.60;;
9445;SDS011;4761;49.490;10.908;2023-12-20T08:13:25;0.87;;;0.70;;
9445;SDS011;4761;49.490;10.908;2023-12-20T08:15:51;0.70;;;0.70;;
9445;SDS011;4761;49.490;10.908;2023-12-20T08:18:17;2.07;;;0.63;;
9445;SDS011;4761;49.490;10.908;2023-12-20T08:20:43;0.80;;;0.60;;
9445;SDS011;4761;49.490;10.908;2023-12-20T08:23:09;0.50;;;0.50;;
9445;SDS011;4761;49.490;10.908;2023-12-20T08:25:34;0.57;;;0.50;;
9445;SDS011;4761;49.490;10.908;2023-12-20T08:28:00;0.77;;;0.77;;
9445;SDS011;4761;49.490;10.908;2023-12-20T08:30:27;0.50;;;0.50;;
9445;SDS011;4761;49.490;10.908;2023-12-20T08:32:54;0.63;;;0.63;;
9445;SDS011;4761;49.490;10.908;2023-12-20T08:35:20;0.63;;;0.63;;
9445;SDS011;4761;49.490;10.908;2023-12-20T08:37:45;1.07;;;0.60;;
9445;SDS011;4761;49.490;10.908;2023-12-20T08:40:11;0.97;;;0.50;;
9445;SDS011;4761;49.490;10.908;2023-12-20T08:42:36;0.80;;;0.60;;
9445;SDS011;4761;49.490;10.908;2023-12-20T08:45:02;0.67;;;0.67;;
9445;SDS011;4761;49.490;10.908;2023-12-20T08:47:29;0.63;;;0.57;;
9445;SDS011;4761;49.490;10.908;2023-12-20T08:49:55;0.63;;;0.63;;
9445;SDS011;4761;49.490;10.908;2023-12-20T08:52:22;1.10;;;0.70;;
9445;SDS011;4761;49.490;10.908;2023-12-20T08:54:48;0.57;;;0.57;;
9445;SDS011;4761;49.490;10.908;2023-12-20T08:57:16;0.97;;;0.80;;
9445;SDS011;4761;49.490;10.908;2023-12-20T08:59:43;0.57;;;0.57;;
9445;SDS011;4761;49.490;10.908;2023-12-20T09:02:08;0.50;;;0.50;;
9445;SDS011;4761;49.490;10.908;2023-12-20T09:04:34;0.73;;;0.53;;
9445;SDS011;4761;49.490;10.908;2023-12-20T09:07:00;0.60;;;0.60;;
9445;SDS011;4761;49.490;10.908;2023-12-20T09:09:26;0.57;;;0.57;;
9445;SDS011;4761;49.490;10.908;2023-12-20T09:11:51;0.70;;;0.70;;
9445;SDS011;4761;49.490;10.908;2023-12-20T09:14:17;1.07;;;0.70;;
9445;SDS011;4761;49.490;10.908;2023-12-20T09:16:42;1.50;;;0.80;;
9445;SDS011;4761;49.490;10.908;2023-12-20T09:19:08;0.70;;;0.60;;
9445;SDS011;4761;49.490;10.908;2023-12-20T09:21:34;0.83;;;0.53;;
9445;SDS011;4761;49.490;10.908;2023-12-20T09:23:59;4.50;;;0.80;;
9445;SDS011;4761;49.490;10.908;2023-12-20T09:26:25;2.40;;;0.93;;
9445;SDS011;4761;49.490;10.908;2023-12-20T09:28:50;1.63;;;0.80;;
9445;SDS011;4761;49.490;10.908;2023-12-20T09:31:16;1.30;;;0.80;;
9445;SDS011;4761;49.490;10.908;2023-12-20T09:33:41;0.97;;;0.70;;
9445;SDS011;4761;49.490;10.908;2023-12-20T09:36:07;1.33;;;0.80;;
9445;SDS011;4761;49.490;10.908;2023-12-20T09:38:32;1.50;;;0.70;;
9445;SDS011;4761;49.490;10.908;2023-12-20T09:40:58;3.63;;;0.80;;
9445;SDS011;4761;49.490;10.908;2023-12-20T09:43:24;0.93;;;0.67;;
9445;SDS011;4761;49.490;10.908;2023-12-20T09:45:54;1.07;;;0.60;;
9445;SDS011;4761;49.490;10.908;2023-12-20T09:48:27;1.27;;;0.70;;
9445;SDS011;4761;49.490;10.908;2023-12-20T09:50:53;1.23;;;0.60;;
9445;SDS011;4761;49.490;10.908;2023-12-20T09:53:19;1.33;;;0.90;;
9445;SDS011;4761;49.490;10.908;2023-12-20T09:55:45;1.00;;;0.70;;
9445;SDS011;4761;49.490;10.908;2023-12-20T09:58:11;1.80;;;0.80;;
9445;SDS011;4761;49.490;10.908;2023-12-20T10:00:37;0.57;;;0.57;;
9445;SDS011;4761;49.490;10.908;2023-12-20T10:03:02;1.23;;;0.63;;
9445;SDS011;4761;49.490;10.908;2023-12-20T10:05:31;2.10;;;0.80;;
9445;SDS011;4761;49.490;10.908;2023-12-20T10:07:58;0.87;;;0.70;;
9445;SDS011;4761;49.490;10.908;2023-12-20T10:10:24;1.00;;;0.70;;
9445;SDS011;4761;49.490;10.908;2023-12-20T10:13:08;1.47;;;0.70;;
9445;SDS011;4761;49.490;10.908;2023-12-20T10:15:35;1.13;;;0.73;;
9445;SDS011;4761;49.490;10.908;2023-12-20T10:18:02;1.80;;;1.00;;
9445;SDS011;4761;49.490;10.908;2023-12-20T10:20:29;1.67;;;0.80;;
9445;SDS011;4761;49.490;10.908;2023-12-20T10:22:55;0.93;;;0.80;;
9445;SDS011;4761;49.490;10.908;2023-12-20T10:25:22;1.20;;;0.90;;
9445;SDS011;4761;49.490;10.908;2023-12-20T10:27:49;1.13;;;0.80;;
9445;SDS011;4761;49.490;10.908;2023-12-20T10:30:15;1.17;;;0.70;;
9445;SDS011;4761;49.490;10.908;2023-12-20T10:32:41;2.60;;;1.17;;
9445;SDS011;4761;49.490;10.908;2023-12-20T10:35:06;2.07;;;0.80;;
9445;SDS011;4761;49.490;10.908;2023-12-20T10:37:36;3.33;;;1.10;;
9445;SDS011;4761;49.490;10.908;2023-12-20T10:40:03;2.33;;;0.97;;
9445;SDS011;4761;49.490;10.908;2023-12-20T10:42:30;1.83;;;0.93;;
9445;SDS011;4761;49.490;10.908;2023-12-20T10:44:58;1.37;;;0.90;;
9445;SDS011;4761;49.490;10.908;2023-12-20T10:47:25;1.70;;;0.90;;
9445;SDS011;4761;49.490;10.908;2023-12-20T10:49:51;3.13;;;0.90;;
9445;SDS011;4761;49.490;10.908;2023-12-20T10:52:18;2.50;;;1.20;;
9445;SDS011;4761;49.490;10.908;2023-12-20T10:54:44;1.87;;;1.10;;
9445;SDS011;4761;49.490;10.908;2023-12-20T10:57:10;2.07;;;0.93;;
9445;SDS011;4761;49.490;10.908;2023-12-20T10:59:36;2.40;;;1.10;;
9445;SDS011;4761;49.490;10.908;2023-12-20T11:02:03;2.17;;;1.00;;
9445;SDS011;4761;49.490;10.908;2023-12-20T11:04:53;1.57;;;0.90;;
9445;SDS011;4761;49.490;10.908;2023-12-20T11:07:48;2.40;;;1.07;;
9445;SDS011;4761;49.490;10.908;2023-12-20T11:10:23;2.30;;;1.10;;
9445;SDS011;4761;49.490;10.908;2023-12-20T11:12:54;1.23;;;0.87;;
9445;SDS011;4761;49.490;10.908;2023-12-20T11:15:34;1.80;;;1.00;;
9445;SDS011;4761;49.490;10.908;2023-12-20T11:18:01;2.67;;;1.17;;
9445;SDS011;4761;49.490;10.908;2023-12-20T11:20:36;1.77;;;0.93;;
9445;SDS011;4761;49.490;10.908;2023-12-20T11:23:02;1.73;;;1.00;;
9445;SDS011;4761;49.490;10.908;2023-12-20T11:25:28;2.93;;;1.33;;
9445;SDS011;4761;49.490;10.908;2023-12-20T11:28:06;2.27;;;1.10;;
9445;SDS011;4761;49.490;10.908;2023-12-20T11:30:47;3.07;;;1.30;;
9445;SDS011;4761;49.490;10.908;2023-12-20T11:33:14;1.97;;;1.00;;
9445;SDS011;4761;49.490;10.908;2023-12-20T11:35:41;3.93;;;1.40;;
9445;SDS011;4761;49.490;10.908;2023-12-20T11:38:09;5.33;;;1.53;;
9445;SDS011;4761;49.490;10.908;2023-12-20T11:40:36;3.33;;;1.60;;
9445;SDS011;4761;49.490;10.908;2023-12-20T11:43:02;1.80;;;1.20;;
9445;SDS011;4761;49.490;10.908;2023-12-20T11:45:28;2.97;;;1.23;;
9445;SDS011;4761;49.490;10.908;2023-12-20T11:47:54;3.07;;;1.43;;
9445;SDS011;4761;49.490;10.908;2023-12-20T11:50:21;4.97;;;1.30;;
9445;SDS011;4761;49.490;10.908;2023-12-20T11:52:48;3.00;;;1.10;;
9445;SDS011;4761;49.490;10.908;2023-12-20T11:55:14;2.83;;;1.30;;
9445;SDS011;4761;49.490;10.908;2023-12-20T11:57:40;3.20;;;1.20;;
9445;SDS011;4761;49.490;10.908;2023-12-20T12:00:07;1.97;;;1.10;;
9445;SDS011;4761;49.490;10.908;2023-12-20T12:02:33;2.17;;;1.17;;
9445;SDS011;4761;49.490;10.908;2023-12-20T12:05:01;2.67;;;1.00;;
9445;SDS011;4761;49.490;10.908;2023-12-20T12:07:30;2.13;;;1.20;;
9445;SDS011;4761;49.490;10.908;2023-12-20T12:09:55;2.10;;;1.17;;
9445;SDS011;4761;49.490;10.908;2023-12-20T12:12:21;2.33;;;1.17;;
9445;SDS011;4761;49.490;10.908;2023-12-20T12:14:47;3.17;;;1.23;;
9445;SDS011;4761;49.490;10.908;2023-12-20T12:17:13;2.47;;;1.40;;
9445;SDS011;4761;49.490;10.908;2023-12-20T12:19:40;1.80;;;0.90;;
9445;SDS011;4761;49.490;10.908;2023-12-20T12:22:10;1.60;;;1.00;;
9445;SDS011;4761;49.490;10.908;2023-12-20T12:24:41;3.13;;;1.27;;
9445;SDS011;4761;49.490;10.908;2023-12-20T12:27:09;2.43;;;1.20;;
9445;SDS011;4761;49.490;10.908;2023-12-20T12:29:35;2.10;;;1.10;;
9445;SDS011;4761;49.490;10.908;2023-12-20T12:32:05;2.77;;;1.13;;
9445;SDS011;4761;49.490;10.908;2023-12-20T12:34:32;1.53;;;0.90;;
9445;SDS011;4761;49.490;10.908;2023-12-20T12:36:59;2.10;;;1.10;;
9445;SDS011;4761;49.490;10.908;2023-12-20T12:39:24;1.87;;;1.10;;
9445;SDS011;4761;49.490;10.908;2023-12-20T12:41:50;1.87;;;1.00;;
9445;SDS011;4761;49.490;10.908;2023-12-20T12:44:16;3.80;;;1.23;;
9445;SDS011;4761;49.490;10.908;2023-12-20T12:46:42;2.57;;;1.20;;
9445;SDS011;4761;49.490;10.908;2023-12-20T12:49:11;2.40;;;1.07;;
9445;SDS011;4761;49.490;10.908;2023-12-20T12:51:37;1.60;;;1.00;;
9445;SDS011;4761;49.490;10.908;2023-12-20T12:54:03;1.73;;;1.10;;
9445;SDS011;4761;49.490;10.908;2023-12-20T12:56:29;3.27;;;1.17;;
9445;SDS011;4761;49.490;10.908;2023-12-20T12:58:54;2.87;;;1.03;;
9445;SDS011;4761;49.490;10.908;2023-12-20T13:01:20;1.90;;;1.00;;
9445;SDS011;4761;49.490;10.908;2023-12-20T13:03:46;2.77;;;1.20;;
9445;SDS011;4761;49.490;10.908;2023-12-20T13:06:12;2.20;;;1.30;;
9445;SDS011;4761;49.490;10.908;2023-12-20T13:08:37;1.93;;;1.10;;
9445;SDS011;4761;49.490;10.908;2023-12-20T13:11:03;1.83;;;1.17;;
9445;SDS011;4761;49.490;10.908;2023-12-20T13:13:29;1.70;;;1.10;;
9445;SDS011;4761;49.490;10.908;2023-12-20T13:15:55;1.77;;;1.00;;
9445;SDS011;4761;49.490;10.908;2023-12-20T13:18:22;2.13;;;1.10;;
9445;SDS011;4761;49.490;10.908;2023-12-20T13:20:47;1.63;;;1.10;;
9445;SDS011;4761;49.490;10.908;2023-12-20T13:23:13;1.77;;;1.10;;
9445;SDS011;4761;49.490;10.908;2023-12-20T13:25:39;3.00;;;1.37;;
9445;SDS011;4761;49.490;10.908;2023-12-20T13:28:05;1.93;;;1.00;;
9445;SDS011;4761;49.490;10.908;2023-12-20T13:30:31;1.67;;;1.00;;
9445;SDS011;4761;49.490;10.908;2023-12-20T13:32:57;2.03;;;1.07;;
9445;SDS011;4761;49.490;10.908;2023-12-20T13:35:22;1.70;;;0.87;;
9445;SDS011;4761;49.490;10.908;2023-12-20T13:37:48;1.53;;;1.10;;
9445;SDS011;4761;49.490;10.908;2023-12-20T13:40:13;1.83;;;1.17;;
9445;SDS011;4761;49.490;10.908;2023-12-20T13:42:39;2.90;;;1.30;;
9445;SDS011;4761;49.490;10.908;2023-12-20T13:45:05;1.90;;;1.03;;
9445;SDS011;4761;49.490;10.908;2023-12-20T13:47:32;2.97;;;1.17;;
9445;SDS011;4761;49.490;10.908;2023-12-20T13:49:58;2.40;;;1.13;;
9445;SDS011;4761;49.490;10.908;2023-12-20T13:52:23;2.50;;;1.30;;
9445;SDS011;4761;49.490;10.908;2023-12-20T13:54:49;2.60;;;1.23;;
9445;SDS011;4761;49.490;10.908;2023-12-20T13:57:14;2.63;;;1.40;;
9445;SDS011;4761;49.490;10.908;2023-12-20T13:59:40;1.77;;;1.00;;
9445;SDS011;4761;49.490;10.908;2023-12-20T14:02:05;2.07;;;0.93;;
9445;SDS011;4761;49.490;10.908;2023-12-20T14:04:31;3.43;;;1.40;;
9445;SDS011;4761;49.490;10.908;2023-12-20T14:06:56;3.10;;;1.13;;
9445;SDS011;4761;49.490;10.908;2023-12-20T14:09:22;2.80;;;1.23;;
9445;SDS011;4761;49.490;10.908;2023-12-20T14:11:48;1.67;;;1.13;;
9445;SDS011;4761;49.490;10.908;2023-12-20T14:14:13;2.67;;;1.03;;
9445;SDS011;4761;49.490;10.908;2023-12-20T14:16:39;2.70;;;1.17;;
9445;SDS011;4761;49.490;10.908;2023-12-20T14:19:04;1.57;;;1.00;;
9445;SDS011;4761;49.490;10.908;2023-12-20T14:21:32;3.10;;;1.20;;
9445;SDS011;4761;49.490;10.908;2023-12-20T14:23:58;2.37;;;1.20;;
9445;SDS011;4761;49.490;10.908;2023-12-20T14:26:24;1.87;;;1.13;;
9445;SDS011;4761;49.490;10.908;2023-12-20T14:28:49;2.07;;;1.30;;
9445;SDS011;4761;49.490;10.908;2023-12-20T14:31:15;2.07;;;1.30;;
9445;SDS011;4761;49.490;10.908;2023-12-20T14:33:40;2.30;;;1.27;;
9445;SDS011;4761;49.490;10.908;2023-12-20T14:36:07;1.90;;;1.27;;
9445;SDS011;4761;49.490;10.908;2023-12-20T14:38:33;3.27;;;1.33;;
9445;SDS011;4761;49.490;10.908;2023-12-20T14:40:58;3.57;;;1.20;;
9445;SDS011;4761;49.490;10.908;2023-12-20T14:43:24;2.27;;;1.30;;
9445;SDS011;4761;49.490;10.908;2023-12-20T14:45:51;2.57;;;1.30;;
9445;SDS011;4761;49.490;10.908;2023-12-20T14:48:17;1.93;;;1.13;;
9445;SDS011;4761;49.490;10.908;2023-12-20T14:50:43;2.27;;;1.20;;
9445;SDS011;4761;49.490;10.908;2023-12-20T14:53:09;2.23;;;1.10;;